Forside
METAR-TAF:

METAR-TAF

Lufthavne :

Shawbury, England

Breddekreds: 52-48N, længdekreds: 002-40W, højde: 76 m

Aktuelle vejr

Denne rapport blev lavet for 47 minutter siden, kl. 12:20 UTC
Vind 8 kt fra nordnordøst
Temperatur 8°C
Fugtighed 61%
Tryk 1034 hPa
Sigt 10 km eller mere
Spredte skyer i en højde af 3000 ft
Brudte skyer i en højde af 3500 ft

METAR: EGOS 311220Z 02008KT 9999 SCT030 BKN035 08/01 Q1034 NOSIG RMK BLU BLU

Tid: 14:07 (13:07 UTC)

Vejrudsigter

Denne rapport blev lavet for 2 timer og 14 minutter siden, kl. 10:53 UTC
Foreløbig gælder fra 31 på 12 UTC til 31 på 18 UTC
Vind 8 kt fra nordnordøst
Sigt 10 km eller mere
Brudte skyer i en højde af 3500 ft

TAF: EGOS 311053Z 3112/3118 02008KT 9999 BKN035

Vejrobservationer og prognoser fra mere end 4000 lufthavne (METAR og TAF).

De gule og røde prikker repræsenterer de meteorologiske stationer.

Flyt musen over at se navnet på stationen.

Så klik over at se vejr observationer og prognoser.

At skifte det kort: Klik på de grønne knapper med et sort kors for at zoome ind; på den grønne knap med en bindestreg for at zoome ud; eller på de grønne pile for tilstødende kort.


METAR-TAF: